Time;durP1;ratioP1;P1;durP2;ratioP2;P2;SDS_P1;SDS_P2;PMS_P1;PMS_P2;Temp;Humidity;BMP_temperature;BMP_pressure;BME280_temperature;BME280_humidity;BME280_pressure;Samples;Min_cycle;Max_cycle;Signal;HPM_P1;HPM_P2
2021/07/29 00:00:34;;;;;;;2.13;0.97;;;16.70;99.90;;;;;;4993445;28;20223;-87
2021/07/29 00:03:00;;;;;;;3.37;1.97;;;16.70;99.90;;;;;;4977436;28;20217;-87
2021/07/29 00:05:27;;;;;;;12.93;1.90;;;16.70;99.90;;;;;;4993025;28;20318;-89
2021/07/29 00:07:53;;;;;;;5.50;1.90;;;16.70;99.90;;;;;;4977726;28;20248;-87
2021/07/29 00:10:20;;;;;;;14.80;1.40;;;16.70;99.90;;;;;;5010496;28;20183;-89
2021/07/29 00:12:47;;;;;;;2.50;0.87;;;16.80;99.90;;;;;;4992344;28;20219;-87
2021/07/29 00:15:15;;;;;;;0.87;0.63;;;16.40;99.90;;;;;;5008711;28;20215;-85
2021/07/29 00:20:16;;;;;;;0.97;0.63;;;15.10;99.90;;;;;;5008908;28;20218;-86
2021/07/29 00:22:43;;;;;;;1.40;0.50;;;15.00;99.90;;;;;;4993137;28;20640;-87
2021/07/29 00:25:13;;;;;;;1.03;0.63;;;14.90;99.90;;;;;;5009532;28;20551;-87
2021/07/29 00:27:43;;;;;;;0.60;0.60;;;14.80;99.90;;;;;;4977031;28;20207;-86
2021/07/29 00:30:10;;;;;;;0.73;0.50;;;14.80;99.90;;;;;;4976012;28;20222;-88
2021/07/29 00:32:36;;;;;;;3.33;1.10;;;14.70;99.90;;;;;;5008287;28;20210;-88
2021/07/29 00:35:07;;;;;;;0.40;0.40;;;14.80;99.90;;;;;;4992395;28;20463;-87
2021/07/29 00:37:36;;;;;;;0.77;0.73;;;14.70;99.90;;;;;;4993036;28;20188;-87
2021/07/29 00:40:04;;;;;;;2.40;0.93;;;14.70;99.90;;;;;;5008574;28;20277;-88
2021/07/29 00:42:29;;;;;;;1.27;1.10;;;14.60;99.90;;;;;;4991819;28;20218;-87
2021/07/29 00:44:55;;;;;;;1.87;1.23;;;14.60;99.90;;;;;;4992614;28;20219;-88
2021/07/29 00:47:21;;;;;;;1.03;0.90;;;14.50;99.90;;;;;;4991411;28;20208;-88
2021/07/29 00:49:48;;;;;;;3.93;1.07;;;14.40;99.90;;;;;;4976288;28;20602;-88
2021/07/29 00:52:15;;;;;;;2.63;0.80;;;14.40;99.90;;;;;;4992919;28;20262;-88
2021/07/29 00:54:42;;;;;;;0.60;0.50;;;14.30;99.90;;;;;;5007980;28;20211;-89
2021/07/29 00:57:09;;;;;;;1.10;1.07;;;14.20;99.90;;;;;;4992073;28;20330;-88
2021/07/29 00:59:39;;;;;;;2.17;1.13;;;14.10;99.90;;;;;;5009148;28;20255;-89
2021/07/29 01:02:05;;;;;;;1.10;0.80;;;14.20;99.90;;;;;;4992041;28;20234;-89
2021/07/29 01:04:31;;;;;;;1.47;0.70;;;14.20;99.90;;;;;;4992771;28;20195;-87
2021/07/29 01:06:56;;;;;;;7.93;1.10;;;14.10;99.90;;;;;;4975997;28;20692;-89
2021/07/29 01:09:22;;;;;;;9.60;1.57;;;14.10;99.90;;;;;;4992412;28;20269;-88
2021/07/29 01:11:48;;;;;;;2.23;1.63;;;14.10;99.90;;;;;;4992586;28;20581;-89
2021/07/29 01:14:15;;;;;;;4.63;1.17;;;14.10;99.90;;;;;;4991974;28;20237;-89
2021/07/29 01:16:41;;;;;;;1.17;1.13;;;14.20;99.90;;;;;;5008688;28;20192;-87
2021/07/29 01:19:09;;;;;;;2.67;1.03;;;14.10;99.90;;;;;;5008370;28;20191;-88
2021/07/29 01:21:35;;;;;;;2.27;1.23;;;14.10;99.90;;;;;;4991767;28;20307;-88
2021/07/29 01:24:01;;;;;;;1.17;1.10;;;14.20;99.90;;;;;;4991794;28;20301;-87
2021/07/29 01:26:27;;;;;;;5.70;1.40;;;14.20;99.90;;;;;;4991784;28;20310;-87
2021/07/29 01:28:54;;;;;;;2.00;1.40;;;14.30;99.90;;;;;;5007390;28;20234;-89
2021/07/29 01:31:20;;;;;;;3.90;1.50;;;14.30;99.90;;;;;;5008165;28;20218;-88
2021/07/29 01:33:46;;;;;;;6.43;2.33;;;14.30;99.90;;;;;;4991463;28;20223;-87
2021/07/29 01:36:12;;;;;;;1.70;1.23;;;14.40;99.90;;;;;;5007258;28;20250;-91
2021/07/29 01:38:37;;;;;;;4.17;1.20;;;14.30;99.90;;;;;;4991584;28;20243;-88
2021/07/29 01:41:03;;;;;;;6.50;1.43;;;14.30;99.90;;;;;;4975590;28;20212;-87
2021/07/29 01:43:30;;;;;;;2.97;1.30;;;14.40;99.90;;;;;;4991879;28;20597;-87
2021/07/29 01:45:56;;;;;;;3.30;1.87;;;14.40;99.90;;;;;;5007605;28;20895;-88
2021/07/29 01:48:21;;;;;;;1.83;1.57;;;14.40;99.90;;;;;;4991114;28;20226;-88
2021/07/29 01:50:47;;;;;;;1.00;0.87;;;14.40;99.90;;;;;;4975742;28;20215;-88
2021/07/29 01:53:13;;;;;;;9.80;0.90;;;14.50;99.90;;;;;;4975177;28;20229;-87
2021/07/29 01:55:57;;;;;;;2.47;0.90;;;14.50;99.90;;;;;;4975192;28;20227;-87
2021/07/29 01:58:22;;;;;;;2.27;1.27;;;14.50;99.90;;;;;;4991493;28;20297;-87
2021/07/29 02:00:51;;;;;;;2.67;0.60;;;14.60;99.90;;;;;;4975445;28;20210;-87
2021/07/29 02:03:17;;;;;;;0.50;0.40;;;14.70;99.90;;;;;;5007865;28;20253;-88
2021/07/29 02:05:43;;;;;;;1.33;0.60;;;14.70;99.90;;;;;;4991703;28;20254;-89
2021/07/29 02:08:08;;;;;;;1.27;1.17;;;14.80;99.90;;;;;;5006880;28;20904;-88
2021/07/29 02:10:35;;;;;;;2.10;1.37;;;14.90;99.90;;;;;;4991269;28;20230;-90
2021/07/29 02:13:02;;;;;;;0.90;0.83;;;14.90;99.90;;;;;;5006868;28;20219;-89
2021/07/29 02:15:28;;;;;;;0.83;0.83;;;15.00;99.90;;;;;;5006611;28;20234;-88
2021/07/29 02:17:58;;;;;;;4.47;1.37;;;14.90;99.90;;;;;;5006569;28;20203;-88
2021/07/29 02:20:25;;;;;;;11.40;1.23;;;15.00;99.90;;;;;;4979898;28;20843;-88
2021/07/29 02:22:51;;;;;;;2.67;2.47;;;15.00;99.90;;;;;;4970861;28;20282;-88
2021/07/29 02:25:18;;;;;;;2.33;1.63;;;15.00;99.90;;;;;;4987771;28;20687;-88
2021/07/29 02:27:44;;;;;;;5.20;1.23;;;15.00;99.90;;;;;;4963537;28;20215;-88
2021/07/29 02:30:10;;;;;;;6.03;1.03;;;15.00;99.90;;;;;;4987217;28;20220;-91
2021/07/29 02:32:38;;;;;;;5.63;1.87;;;15.00;99.90;;;;;;4986592;28;20204;-87
2021/07/29 02:35:05;;;;;;;5.77;2.17;;;15.00;99.90;;;;;;4977721;28;20271;-87
2021/07/29 02:37:32;;;;;;;5.40;1.27;;;15.00;99.90;;;;;;4963218;28;20271;-87
2021/07/29 02:39:57;;;;;;;1.53;1.20;;;15.00;99.90;;;;;;4987250;28;20304;-90
2021/07/29 02:42:23;;;;;;;1.77;1.30;;;15.00;99.90;;;;;;4987324;28;20657;-89
2021/07/29 02:44:49;;;;;;;4.83;1.33;;;15.00;99.90;;;;;;4962577;28;20212;-87
2021/07/29 02:47:15;;;;;;;1.60;1.37;;;14.90;99.90;;;;;;4962089;28;20216;-87
2021/07/29 02:49:40;;;;;;;4.23;1.30;;;14.90;99.90;;;;;;4987301;28;20228;-88
2021/07/29 02:52:07;;;;;;;3.83;1.73;;;15.00;99.90;;;;;;4987870;28;21003;-87
2021/07/29 02:54:33;;;;;;;4.23;1.57;;;14.90;99.90;;;;;;4962968;28;20286;-88
2021/07/29 02:56:59;;;;;;;2.27;1.60;;;14.90;99.90;;;;;;4987539;28;20236;-88
2021/07/29 02:59:25;;;;;;;4.87;1.93;;;14.80;99.90;;;;;;4978455;28;20228;-88
2021/07/29 03:01:50;;;;;;;1.50;1.40;;;14.80;99.90;;;;;;4986278;28;20780;-89
2021/07/29 03:04:16;;;;;;;7.53;2.30;;;14.70;99.90;;;;;;4986888;28;20279;-88
2021/07/29 03:06:42;;;;;;;3.73;2.07;;;14.70;99.90;;;;;;4988168;28;20307;-87
2021/07/29 03:09:10;;;;;;;6.30;1.93;;;14.60;99.90;;;;;;4979134;28;21019;-87
2021/07/29 03:11:36;;;;;;;6.70;1.47;;;14.50;99.90;;;;;;4962654;28;20227;-88
2021/07/29 03:14:02;;;;;;;2.60;2.40;;;14.50;99.90;;;;;;4987061;28;20737;-87
2021/07/29 03:16:27;;;;;;;5.97;2.30;;;14.50;99.90;;;;;;4986506;28;20288;-87
2021/07/29 03:18:53;;;;;;;12.00;1.97;;;14.50;99.90;;;;;;4986579;28;20302;-87
2021/07/29 03:21:19;;;;;;;3.70;1.37;;;14.50;99.90;;;;;;4960981;28;20216;-88
2021/07/29 03:23:45;;;;;;;1.27;1.00;;;14.40;99.90;;;;;;4963626;28;20219;-89
2021/07/29 03:26:10;;;;;;;3.03;1.67;;;14.40;99.90;;;;;;4961823;28;20310;-89
2021/07/29 03:28:36;;;;;;;1.70;1.00;;;14.40;99.90;;;;;;4986619;28;20294;-87
2021/07/29 03:31:02;;;;;;;1.60;1.10;;;14.30;99.90;;;;;;4970206;28;20315;-88
2021/07/29 03:33:28;;;;;;;2.43;1.00;;;14.40;99.90;;;;;;4985727;28;20258;-87
2021/07/29 03:35:53;;;;;;;1.17;1.00;;;14.40;99.90;;;;;;4970773;28;20212;-87
2021/07/29 03:38:19;;;;;;;3.83;1.23;;;14.40;99.90;;;;;;4978152;28;20309;-87
2021/07/29 03:40:46;;;;;;;5.60;1.57;;;14.40;99.90;;;;;;4962665;28;20567;-88
2021/07/29 03:43:12;;;;;;;1.70;1.30;;;14.40;99.90;;;;;;4986729;28;20199;-88
2021/07/29 03:45:44;;;;;;;3.37;1.50;;;14.40;99.90;;;;;;4970133;28;20306;-89
2021/07/29 03:48:10;;;;;;;2.73;1.60;;;14.40;99.90;;;;;;4986259;28;20222;-86
2021/07/29 03:50:38;;;;;;;2.00;1.10;;;14.40;99.90;;;;;;4980659;28;20692;-87
2021/07/29 03:53:04;;;;;;;12.47;1.77;;;14.40;99.90;;;;;;4986199;28;20687;-90
2021/07/29 03:55:29;;;;;;;3.53;1.03;;;14.40;99.90;;;;;;4962292;28;20334;-87
2021/07/29 03:57:55;;;;;;;5.47;1.40;;;14.30;99.90;;;;;;4962116;28;20232;-88
2021/07/29 04:00:21;;;;;;;5.80;1.40;;;14.30;99.90;;;;;;4986304;28;20271;-88
2021/07/29 04:02:47;;;;;;;3.93;1.07;;;14.20;99.90;;;;;;4963152;28;20203;-87
2021/07/29 04:05:12;;;;;;;1.20;0.97;;;14.20;99.90;;;;;;4964560;28;20234;-89
2021/07/29 04:07:38;;;;;;;11.63;1.93;;;14.20;99.90;;;;;;4962105;28;20243;-88
2021/07/29 04:10:04;;;;;;;1.30;1.07;;;14.20;99.90;;;;;;4960252;28;20332;-90
2021/07/29 04:12:31;;;;;;;4.57;1.33;;;14.20;99.90;;;;;;4961674;28;20224;-90
2021/07/29 04:14:57;;;;;;;4.60;0.90;;;14.30;99.90;;;;;;4963331;28;20311;-89
2021/07/29 04:17:23;;;;;;;2.70;1.30;;;14.40;99.90;;;;;;4936260;28;20313;-89
2021/07/29 04:19:48;;;;;;;2.97;0.47;;;14.40;99.90;;;;;;4985029;28;20776;-89
2021/07/29 04:22:14;;;;;;;3.40;1.00;;;14.40;99.90;;;;;;4946814;28;20228;-92
2021/07/29 04:24:40;;;;;;;2.30;0.83;;;14.40;99.90;;;;;;4990748;28;20226;-90
2021/07/29 04:27:06;;;;;;;5.00;0.70;;;14.40;99.90;;;;;;4974691;28;20815;-89
2021/07/29 04:29:32;;;;;;;1.77;0.77;;;14.40;99.90;;;;;;4984341;28;20238;-87
2021/07/29 04:31:59;;;;;;;4.77;1.37;;;14.40;99.90;;;;;;4964534;28;20290;-89
2021/07/29 04:34:25;;;;;;;12.50;1.63;;;14.50;99.90;;;;;;4981248;28;20196;-88
2021/07/29 04:36:54;;;;;;;3.70;1.60;;;14.50;99.90;;;;;;4966283;28;20231;-89
2021/07/29 04:39:19;;;;;;;0.90;0.83;;;14.50;99.90;;;;;;4989063;28;20227;-88
2021/07/29 04:41:45;;;;;;;2.60;1.13;;;14.40;99.90;;;;;;4966183;28;20227;-89
2021/07/29 04:44:15;;;;;;;5.10;1.30;;;14.40;99.90;;;;;;4989652;28;20200;-88
2021/07/29 04:46:42;;;;;;;3.70;0.83;;;14.40;99.90;;;;;;4990144;28;20676;-88
2021/07/29 04:49:10;;;;;;;2.23;0.90;;;14.40;99.90;;;;;;4989379;28;20254;-88
2021/07/29 04:51:36;;;;;;;4.90;1.53;;;14.40;99.90;;;;;;4989159;28;21327;-88
2021/07/29 04:54:03;;;;;;;3.03;0.90;;;14.50;99.90;;;;;;4989431;28;20551;-89
2021/07/29 04:56:29;;;;;;;4.07;1.47;;;14.60;99.90;;;;;;4964192;28;20286;-88
2021/07/29 04:58:55;;;;;;;1.83;0.83;;;14.60;99.90;;;;;;4979223;28;20223;-88
2021/07/29 05:01:22;;;;;;;1.67;1.07;;;14.60;99.90;;;;;;4988468;28;20703;-88
2021/07/29 05:03:48;;;;;;;2.90;0.87;;;14.70;99.90;;;;;;4971953;28;20241;-88
2021/07/29 05:06:14;;;;;;;2.23;0.80;;;14.80;99.90;;;;;;4989230;28;20219;-89
2021/07/29 05:08:43;;;;;;;0.20;0.20;;;15.00;99.90;;;;;;4967752;28;20247;-90
2021/07/29 05:11:10;;;;;;;0.77;0.33;;;15.10;99.90;;;;;;4980072;28;20231;-88
2021/07/29 05:13:36;;;;;;;0.50;0.50;;;15.30;99.90;;;;;;4966435;28;20196;-90
2021/07/29 05:16:08;;;;;;;1.60;0.70;;;15.40;99.90;;;;;;4973314;28;20299;-91
2021/07/29 05:18:35;;;;;;;2.37;0.93;;;15.50;99.90;;;;;;4982472;28;20211;-87
2021/07/29 05:21:06;;;;;;;0.60;0.60;;;15.60;99.90;;;;;;4963020;28;20232;-92
2021/07/29 05:23:32;;;;;;;0.37;0.37;;;15.80;99.90;;;;;;4989533;28;20327;-90
2021/07/29 05:25:58;;;;;;;0.97;0.77;;;16.00;99.90;;;;;;4966063;28;20188;-92
2021/07/29 05:28:24;;;;;;;1.13;0.67;;;17.20;99.90;;;;;;4968883;28;20219;-91
2021/07/29 05:30:50;;;;;;;3.20;0.80;;;19.10;99.90;;;;;;4991906;28;21138;-91
2021/07/29 05:33:21;;;;;;;2.03;0.73;;;20.90;99.90;;;;;;4992012;28;20216;-93
2021/07/29 05:35:47;;;;;;;2.20;0.97;;;22.80;99.90;;;;;;4981060;28;20216;-93
2021/07/29 05:38:12;;;;;;;2.90;0.57;;;23.70;99.90;;;;;;4992610;28;20578;-92
2021/07/29 05:40:38;;;;;;;1.67;1.00;;;22.50;99.90;;;;;;4989903;28;20701;-93
2021/07/29 05:43:04;;;;;;;0.87;0.50;;;22.30;99.90;;;;;;4988449;28;20243;-91
2021/07/29 05:45:32;;;;;;;0.60;0.60;;;21.60;99.90;;;;;;4987648;28;20247;-91
2021/07/29 05:47:59;;;;;;;4.03;0.63;;;19.90;99.90;;;;;;4983213;28;20212;-91
2021/07/29 05:50:24;;;;;;;4.13;0.73;;;18.40;99.90;;;;;;4966199;28;20266;-92
2021/07/29 05:52:50;;;;;;;1.30;0.67;;;17.80;99.90;;;;;;4970682;28;20660;-92
2021/07/29 05:55:16;;;;;;;0.50;0.50;;;17.00;99.90;;;;;;4973540;28;20712;-90
2021/07/29 05:57:42;;;;;;;6.43;1.07;;;16.60;99.90;;;;;;4989289;28;20231;-91
2021/07/29 06:00:09;;;;;;;1.23;1.10;;;16.40;99.90;;;;;;4964141;28;20296;-89
2021/07/29 06:02:38;;;;;;;6.67;1.00;;;17.70;99.90;;;;;;4982026;28;20215;-91
2021/07/29 06:05:04;;;;;;;1.30;0.97;;;20.90;99.90;;;;;;4965247;28;20195;-92
2021/07/29 06:07:30;;;;;;;2.43;1.23;;;22.50;99.90;;;;;;4968535;28;20668;-90
2021/07/29 06:09:56;;;;;;;1.83;1.03;;;24.40;99.90;;;;;;4987515;28;20224;-89
2021/07/29 06:12:24;;;;;;;4.27;0.90;;;24.30;99.90;;;;;;4961425;28;20224;-89
2021/07/29 06:14:55;;;;;;;0.90;0.80;;;24.20;99.90;;;;;;4963326;28;20216;-88
2021/07/29 06:17:24;;;;;;;5.10;1.30;;;25.70;99.90;;;;;;4964083;28;20212;-89
2021/07/29 06:19:50;;;;;;;0.97;0.73;;;24.00;99.90;;;;;;4973333;28;21193;-90
2021/07/29 06:22:16;;;;;;;1.60;0.77;;;20.80;99.90;;;;;;4965815;28;20219;-89
2021/07/29 06:24:42;;;;;;;1.50;1.13;;;21.20;99.90;;;;;;4964799;28;20251;-91
2021/07/29 06:27:09;;;;;;;6.07;0.90;;;22.10;99.90;;;;;;4964678;28;20212;-92
2021/07/29 06:29:34;;;;;;;1.43;1.00;;;23.80;99.90;;;;;;4963804;28;20224;-92
2021/07/29 06:32:00;;;;;;;3.33;1.23;;;24.10;99.90;;;;;;4972969;28;20672;-89
2021/07/29 06:34:26;;;;;;;1.83;1.30;;;22.70;99.90;;;;;;4965439;28;20207;-92
2021/07/29 06:36:52;;;;;;;1.57;1.10;;;23.10;99.90;;;;;;4988874;28;20220;-91
2021/07/29 06:39:18;;;;;;;2.63;0.77;;;24.00;99.90;;;;;;4965706;28;20216;-91
2021/07/29 06:41:43;;;;;;;2.75;1.00;;;24.30;99.90;;;;;;4982197;28;20278;-90
2021/07/29 06:44:11;;;;;;;1.60;0.95;;;24.20;99.90;;;;;;4966944;28;20201;-93
2021/07/29 06:46:38;;;;;;;1.63;0.85;;;25.90;99.90;;;;;;4967504;28;20184;-91
2021/07/29 06:49:07;;;;;;;1.23;0.70;;;25.20;99.90;;;;;;4966034;28;20220;-91
2021/07/29 06:51:37;;;;;;;2.03;1.05;;;24.80;99.90;;;;;;5003859;28;20216;-91
2021/07/29 06:54:04;;;;;;;2.70;0.90;;;24.10;99.90;;;;;;4965523;28;20228;-93
2021/07/29 06:56:31;;;;;;;1.17;0.95;;;23.70;99.90;;;;;;4987330;28;20262;-91
2021/07/29 06:58:57;;;;;;;3.28;1.40;;;23.30;99.90;;;;;;4961771;28;20684;-88
2021/07/29 07:01:26;;;;;;;2.17;1.10;;;20.90;99.90;;;;;;4987007;28;20243;-91
2021/07/29 07:03:52;;;;;;;1.93;1.17;;;19.80;99.90;;;;;;4986656;28;20248;-91
2021/07/29 07:06:18;;;;;;;2.33;0.90;;;19.90;99.90;;;;;;4979469;28;20224;-90
2021/07/29 07:08:44;;;;;;;2.00;0.90;;;20.50;99.90;;;;;;4979137;28;20262;-89
2021/07/29 07:11:16;;;;;;;1.50;0.93;;;20.60;99.90;;;;;;4963543;28;20195;-90
2021/07/29 07:13:43;;;;;;;3.77;1.47;;;19.90;99.90;;;;;;4987318;28;20581;-88
2021/07/29 07:16:13;;;;;;;3.33;1.23;;;19.10;99.90;;;;;;4978489;28;20262;-88
2021/07/29 07:18:40;;;;;;;2.83;1.00;;;18.90;99.90;;;;;;4963076;28;20233;-92
2021/07/29 07:21:08;;;;;;;3.20;1.30;;;18.80;99.90;;;;;;4962235;28;20208;-90
2021/07/29 07:23:38;;;;;;;3.60;0.90;;;18.40;99.90;;;;;;4982741;28;20208;-90
2021/07/29 07:26:04;;;;;;;4.87;1.50;;;18.10;99.90;;;;;;4964554;28;20184;-90
2021/07/29 07:28:31;;;;;;;4.20;1.33;;;18.00;99.90;;;;;;4987690;28;20252;-88
2021/07/29 07:30:57;;;;;;;2.00;1.27;;;18.00;99.90;;;;;;4965298;28;20204;-90
2021/07/29 07:33:23;;;;;;;6.77;1.37;;;18.70;99.90;;;;;;4986731;28;20223;-89
2021/07/29 07:35:49;;;;;;;1.57;1.03;;;21.20;99.90;;;;;;4962264;28;20212;-89
2021/07/29 07:38:16;;;;;;;4.57;1.20;;;22.20;99.90;;;;;;4966163;28;21208;-88
2021/07/29 07:40:41;;;;;;;2.97;1.37;;;21.10;99.90;;;;;;4987154;28;20187;-88
2021/07/29 07:43:08;;;;;;;1.57;1.37;;;19.80;99.90;;;;;;4970535;28;20215;-89
2021/07/29 07:45:35;;;;;;;2.93;0.97;;;19.40;99.90;;;;;;4986577;28;20718;-89
2021/07/29 07:48:02;;;;;;;4.00;1.03;;;19.70;99.90;;;;;;4978563;28;20696;-90
2021/07/29 07:50:27;;;;;;;0.87;0.87;;;19.00;99.90;;;;;;4961250;28;20215;-89
2021/07/29 07:52:53;;;;;;;2.33;1.40;;;18.50;99.90;;;;;;4987510;28;20195;-91
2021/07/29 07:55:19;;;;;;;1.40;1.30;;;18.40;99.90;;;;;;4967096;28;20243;-90
2021/07/29 07:57:44;;;;;;;3.70;1.03;;;19.20;99.90;;;;;;4973148;28;20250;-92
2021/07/29 08:00:11;;;;;;;4.93;1.43;;;20.50;99.90;;;;;;4974292;28;20220;-92
2021/07/29 08:02:37;;;;;;;2.67;1.40;;;20.60;99.90;;;;;;5006758;28;20718;-92
2021/07/29 08:05:03;;;;;;;2.33;0.87;;;20.80;99.90;;;;;;4967541;28;20192;-91
2021/07/29 08:07:29;;;;;;;5.07;1.10;;;20.70;99.90;;;;;;4990325;28;20196;-92
2021/07/29 08:09:56;;;;;;;1.63;1.20;;;20.10;99.90;;;;;;4974424;28;20286;-93
2021/07/29 08:12:22;;;;;;;1.00;1.00;;;20.50;99.90;;;;;;4975167;28;20299;-92
2021/07/29 08:14:48;;;;;;;0.73;0.73;;;21.50;99.90;;;;;;4965061;28;20839;-94
2021/07/29 08:17:14;;;;;;;5.27;1.10;;;21.80;99.90;;;;;;4985272;28;20206;-93
2021/07/29 08:19:40;;;;;;;1.20;1.13;;;22.40;99.90;;;;;;4966954;28;20292;-92
2021/07/29 08:22:05;;;;;;;3.37;1.10;;;23.00;99.90;;;;;;4974020;28;20230;-92
2021/07/29 08:24:34;;;;;;;4.47;1.17;;;22.10;99.90;;;;;;4966052;28;20237;-90
2021/07/29 08:27:01;;;;;;;1.97;1.60;;;21.90;99.90;;;;;;4990362;28;20216;-91
2021/07/29 08:29:30;;;;;;;1.97;1.30;;;20.90;99.90;;;;;;4966026;28;20236;-91
2021/07/29 08:31:57;;;;;;;5.17;1.60;;;20.00;99.90;;;;;;4968987;28;20187;-90
2021/07/29 08:34:22;;;;;;;5.50;0.90;;;19.70;99.90;;;;;;4990743;28;20219;-92
2021/07/29 08:36:48;;;;;;;3.33;1.10;;;19.50;99.90;;;;;;4974095;28;20587;-92
2021/07/29 08:39:14;;;;;;;2.23;0.80;;;19.90;99.90;;;;;;4963950;28;20227;-93
2021/07/29 08:41:42;;;;;;;3.27;0.90;;;19.10;99.90;;;;;;4974844;28;20319;-93
2021/07/29 08:44:08;;;;;;;3.20;1.07;;;18.70;99.90;;;;;;4968648;28;20235;-93
2021/07/29 08:46:35;;;;;;;1.20;1.20;;;18.60;99.90;;;;;;4970535;28;20192;-93
2021/07/29 08:49:02;;;;;;;0.70;0.70;;;19.60;99.90;;;;;;4973856;28;20727;-93
2021/07/29 08:51:29;;;;;;;3.40;0.80;;;20.50;99.90;;;;;;4989590;28;20220;-94
2021/07/29 08:53:57;;;;;;;0.80;0.67;;;20.00;99.90;;;;;;4982733;28;20571;-92
2021/07/29 08:56:24;;;;;;;1.70;0.90;;;18.60;99.90;;;;;;4966971;28;20584;-92
2021/07/29 08:58:50;;;;;;;1.60;0.80;;;18.00;99.90;;;;;;4992035;28;20239;-93
2021/07/29 09:01:16;;;;;;;14.63;1.33;;;17.80;99.90;;;;;;5006910;28;20216;-92
2021/07/29 09:03:44;;;;;;;1.47;0.77;;;18.00;99.90;;;;;;4967616;28;20575;-93
2021/07/29 09:06:13;;;;;;;3.13;0.90;;;18.30;99.90;;;;;;5004326;28;20220;-93
2021/07/29 09:08:52;;;;;;;3.47;1.07;;;18.20;99.90;;;;;;4989521;28;20291;-92
2021/07/29 09:11:37;;;;;;;0.97;0.87;;;18.40;99.90;;;;;;4968725;28;20223;-93
2021/07/29 09:14:23;;;;;;;2.37;0.77;;;18.10;99.90;;;;;;4989398;28;20188;-93
2021/07/29 09:17:05;;;;;;;2.27;1.10;;;17.90;99.90;;;;;;4999383;28;21089;-92
2021/07/29 09:19:39;;;;;;;2.87;1.03;;;18.80;99.90;;;;;;5009471;28;20613;-93
2021/07/29 09:22:17;;;;;;;3.13;1.37;;;20.20;99.90;;;;;;4985706;28;20695;-93
2021/07/29 09:25:04;;;;;;;3.73;1.17;;;20.90;99.90;;;;;;5008304;28;21028;-93
2021/07/29 09:27:39;;;;;;;1.23;0.67;;;21.10;99.90;;;;;;5007936;28;20278;-92
2021/07/29 09:30:24;;;;;;;1.30;0.80;;;20.00;99.90;;;;;;5008504;28;21331;-91
2021/07/29 09:33:12;;;;;;;4.10;0.80;;;19.30;99.90;;;;;;4991947;28;20803;-93
2021/07/29 09:35:47;;;;;;;0.40;0.40;;;19.60;99.90;;;;;;5025036;28;20215;-93
2021/07/29 09:38:32;;;;;;;1.23;0.80;;;18.50;99.90;;;;;;5008484;28;20213;-92
2021/07/29 09:41:06;;;;;;;2.87;1.10;;;18.00;99.90;;;;;;5009311;28;20555;-90
2021/07/29 09:43:38;;;;;;;1.77;0.97;;;17.80;99.90;;;;;;4977072;28;20187;-92
2021/07/29 09:46:16;;;;;;;4.63;1.20;;;18.60;99.90;;;;;;5008004;28;20219;-92
2021/07/29 09:48:44;;;;;;;4.00;1.00;;;20.10;99.90;;;;;;5007905;28;20230;-94
2021/07/29 09:51:10;;;;;;;3.60;0.90;;;20.40;99.90;;;;;;4979721;28;20220;-93
2021/07/29 09:53:38;;;;;;;2.13;0.93;;;19.80;99.90;;;;;;4988224;28;20215;-93
2021/07/29 09:56:09;;;;;;;3.90;1.97;;;20.30;99.90;;;;;;4990480;28;20231;-93
2021/07/29 09:58:36;;;;;;;1.43;0.80;;;20.00;99.90;;;;;;4982347;28;20224;-92
2021/07/29 10:01:03;;;;;;;1.47;0.90;;;19.40;99.90;;;;;;4962116;28;20232;-93
2021/07/29 10:03:30;;;;;;;1.17;0.97;;;19.00;99.90;;;;;;4988098;28;20224;-93
2021/07/29 10:06:12;;;;;;;1.70;1.00;;;18.70;99.90;;;;;;4982156;28;20298;-95
2021/07/29 10:09:02;;;;;;;3.57;1.03;;;19.90;99.90;;;;;;4979974;28;20224;-93
2021/07/29 10:11:35;;;;;;;3.40;1.20;;;20.30;99.90;;;;;;4970793;28;20299;-94
2021/07/29 10:14:02;;;;;;;3.67;1.17;;;19.30;99.90;;;;;;4989427;28;20191;-93
2021/07/29 10:16:43;;;;;;;2.97;1.43;;;18.30;99.90;;;;;;4993085;28;20180;-92
2021/07/29 10:19:09;;;;;;;1.67;1.07;;;18.00;99.90;;;;;;5005323;28;20710;-92
2021/07/29 10:21:37;;;;;;;1.37;1.27;;;18.00;99.90;;;;;;4990431;28;20215;-92
2021/07/29 10:24:05;;;;;;;2.73;1.40;;;18.00;99.90;;;;;;4988086;28;20223;-93
2021/07/29 10:26:36;;;;;;;4.63;1.03;;;17.80;99.90;;;;;;4981656;28;20212;-92
2021/07/29 10:29:25;;;;;;;1.77;0.90;;;17.60;99.90;;;;;;4987102;28;20224;-91
2021/07/29 10:31:59;;;;;;;1.50;1.00;;;18.40;99.90;;;;;;5003949;28;20195;-92
2021/07/29 10:34:32;;;;;;;2.60;1.10;;;18.70;99.90;;;;;;5007369;28;20199;-93
2021/07/29 10:36:59;;;;;;;1.23;1.20;;;18.50;99.90;;;;;;4974747;28;20687;-93
2021/07/29 10:39:26;;;;;;;5.37;1.00;;;19.10;99.90;;;;;;5007887;28;20231;-93
2021/07/29 10:41:59;;;;;;;1.80;0.80;;;19.40;99.90;;;;;;4990763;28;20219;-90
2021/07/29 10:44:31;;;;;;;3.00;0.80;;;18.80;99.90;;;;;;5007015;28;20242;-92
2021/07/29 10:46:57;;;;;;;0.63;0.63;;;18.80;99.90;;;;;;5007364;28;20188;-89
2021/07/29 10:49:23;;;;;;;2.10;1.07;;;20.00;99.90;;;;;;5005499;28;20233;-91
2021/07/29 10:52:04;;;;;;;2.17;1.00;;;19.90;99.90;;;;;;4990352;28;20225;-90
2021/07/29 10:54:31;;;;;;;3.97;1.77;;;19.30;99.90;;;;;;5006377;28;20211;-90
2021/07/29 10:56:57;;;;;;;1.13;0.90;;;19.30;99.90;;;;;;5006305;28;20207;-90
2021/07/29 10:59:23;;;;;;;1.50;0.97;;;19.90;99.90;;;;;;4990350;28;20230;-90
2021/07/29 11:01:50;;;;;;;1.43;1.17;;;19.70;99.90;;;;;;4990870;28;20188;-91
2021/07/29 11:04:16;;;;;;;3.43;1.57;;;20.30;99.90;;;;;;5006693;28;20262;-91
2021/07/29 11:06:54;;;;;;;1.97;0.90;;;20.60;99.90;;;;;;4973730;28;20747;-90
2021/07/29 11:09:27;;;;;;;2.83;1.23;;;20.10;99.90;;;;;;4977597;28;20762;-90
2021/07/29 11:11:54;;;;;;;1.90;1.03;;;19.30;99.90;;;;;;5006159;28;20211;-90
2021/07/29 11:14:24;;;;;;;1.00;0.60;;;18.90;99.90;;;;;;4974465;28;20730;-91
2021/07/29 11:16:51;;;;;;;2.23;0.93;;;19.00;99.90;;;;;;5006656;28;20176;-91
2021/07/29 11:19:17;;;;;;;3.50;1.10;;;18.90;99.90;;;;;;4983615;28;20211;-91
2021/07/29 11:21:43;;;;;;;1.27;0.90;;;19.30;99.90;;;;;;4990496;28;20218;-91
2021/07/29 11:24:25;;;;;;;1.63;1.00;;;19.70;99.90;;;;;;4989815;28;20224;-91
2021/07/29 11:26:51;;;;;;;2.53;1.60;;;19.50;99.90;;;;;;5006222;28;20214;-90
2021/07/29 11:29:17;;;;;;;4.10;0.93;;;19.30;99.90;;;;;;4990589;28;20734;-91
2021/07/29 11:31:43;;;;;;;4.30;0.90;;;19.40;99.90;;;;;;4994562;28;20184;-91
2021/07/29 11:34:10;;;;;;;3.33;0.90;;;19.80;99.90;;;;;;5010357;28;20238;-91
2021/07/29 11:36:36;;;;;;;2.90;0.93;;;20.30;99.90;;;;;;4993915;28;20299;-92
2021/07/29 11:39:07;;;;;;;0.60;0.60;;;19.70;99.90;;;;;;4990985;28;20216;-89
2021/07/29 11:41:56;;;;;;;3.57;1.20;;;19.50;99.90;;;;;;4989945;28;20207;-90
2021/07/29 11:44:35;;;;;;;5.50;1.00;;;19.70;99.90;;;;;;4990356;28;20639;-90
2021/07/29 11:47:02;;;;;;;3.47;1.20;;;19.90;99.90;;;;;;4990170;28;20897;-90
2021/07/29 11:49:28;;;;;;;2.53;1.00;;;20.10;99.90;;;;;;4959095;28;20707;-92
2021/07/29 11:52:08;;;;;;;1.37;1.10;;;20.10;99.90;;;;;;4973931;28;20599;-93
2021/07/29 11:54:34;;;;;;;2.67;1.30;;;20.10;99.90;;;;;;4992723;28;20291;-90
2021/07/29 11:57:01;;;;;;;3.57;1.20;;;20.20;99.90;;;;;;4975117;28;20208;-90
2021/07/29 11:59:41;;;;;;;2.20;0.87;;;20.30;99.90;;;;;;4990980;28;20223;-90
2021/07/29 12:02:08;;;;;;;5.37;1.33;;;20.50;99.90;;;;;;4990557;28;20204;-91
2021/07/29 12:04:44;;;;;;;1.10;1.03;;;20.40;99.90;;;;;;4991300;28;20579;-91
2021/07/29 12:07:13;;;;;;;1.03;0.90;;;20.50;99.90;;;;;;4974661;28;20715;-91
2021/07/29 12:09:44;;;;;;;3.03;1.20;;;20.40;99.90;;;;;;4975451;28;20270;-91
2021/07/29 12:12:11;;;;;;;6.20;1.43;;;20.30;99.90;;;;;;4990739;28;20259;-92
2021/07/29 12:14:42;;;;;;;1.40;1.00;;;20.80;99.90;;;;;;4976845;28;20289;-92
2021/07/29 12:17:19;;;;;;;4.80;1.17;;;20.50;99.90;;;;;;5007629;28;20183;-93
2021/07/29 12:19:58;;;;;;;1.97;0.90;;;20.20;99.90;;;;;;4977066;28;20211;-94
2021/07/29 12:22:28;;;;;;;2.73;1.17;;;20.20;99.90;;;;;;5010491;28;20754;-95
2021/07/29 12:24:56;;;;;;;2.70;1.00;;;20.40;99.90;;;;;;4977930;28;20680;-94
2021/07/29 12:27:23;;;;;;;1.00;0.90;;;20.30;99.90;;;;;;4974843;28;20212;-94
2021/07/29 12:29:49;;;;;;;3.27;1.00;;;20.40;99.90;;;;;;4979152;28;20275;-94
2021/07/29 12:32:29;;;;;;;1.53;1.43;;;20.40;99.90;;;;;;4979556;28;20196;-94
2021/07/29 12:34:56;;;;;;;2.63;1.13;;;20.60;99.90;;;;;;4998565;28;20199;-96
2021/07/29 12:37:35;;;;;;;2.23;0.87;;;20.80;99.90;;;;;;4969685;28;20298;-93
2021/07/29 12:40:04;;;;;;;4.03;2.00;;;20.50;99.90;;;;;;4979209;28;20239;-94
2021/07/29 12:42:33;;;;;;;1.40;1.23;;;20.50;99.90;;;;;;4975958;28;20262;-93
2021/07/29 12:45:07;;;;;;;1.70;0.80;;;20.30;99.90;;;;;;4996214;28;20220;-95
2021/07/29 12:47:34;;;;;;;2.20;1.10;;;20.60;99.90;;;;;;4995281;28;20216;-95
2021/07/29 12:49:59;;;;;;;2.43;1.00;;;20.40;99.90;;;;;;4992879;28;20668;-94
2021/07/29 12:52:26;;;;;;;1.80;1.13;;;20.20;99.90;;;;;;4995103;28;20184;-93